sensor_id;sensor_type;location;lat;lon;timestamp;pressure;altitude;pressure_sealevel;temperature
37536;BMP180;23379;51.554;6.736;2024-01-15T00:00:33;99730.00;;;1.20
37536;BMP180;23379;51.554;6.736;2024-01-15T00:02:58;99723.00;;;1.10
37536;BMP180;23379;51.554;6.736;2024-01-15T00:05:24;99718.00;;;1.10
37536;BMP180;23379;51.554;6.736;2024-01-15T00:07:49;99706.00;;;1.20
37536;BMP180;23379;51.554;6.736;2024-01-15T00:10:14;99705.00;;;1.20
37536;BMP180;23379;51.554;6.736;2024-01-15T00:12:40;99707.00;;;1.10
37536;BMP180;23379;51.554;6.736;2024-01-15T00:15:05;99694.00;;;1.10
37536;BMP180;23379;51.554;6.736;2024-01-15T00:17:31;99690.00;;;1.00
37536;BMP180;23379;51.554;6.736;2024-01-15T00:19:56;99700.00;;;1.10
37536;BMP180;23379;51.554;6.736;2024-01-15T00:22:25;99695.00;;;1.20
37536;BMP180;23379;51.554;6.736;2024-01-15T00:24:51;99700.00;;;1.20
37536;BMP180;23379;51.554;6.736;2024-01-15T00:27:16;99696.00;;;1.10
37536;BMP180;23379;51.554;6.736;2024-01-15T00:29:42;99697.00;;;1.10
37536;BMP180;23379;51.554;6.736;2024-01-15T00:32:07;99691.00;;;1.10
37536;BMP180;23379;51.554;6.736;2024-01-15T00:34:32;99696.00;;;1.20
37536;BMP180;23379;51.554;6.736;2024-01-15T00:36:57;99678.00;;;1.20
37536;BMP180;23379;51.554;6.736;2024-01-15T00:39:23;99684.00;;;1.40
37536;BMP180;23379;51.554;6.736;2024-01-15T00:41:48;99678.00;;;1.20
37536;BMP180;23379;51.554;6.736;2024-01-15T00:44:14;99696.00;;;1.20
37536;BMP180;23379;51.554;6.736;2024-01-15T00:46:44;99680.00;;;1.10
37536;BMP180;23379;51.554;6.736;2024-01-15T00:49:09;99685.00;;;1.20
37536;BMP180;23379;51.554;6.736;2024-01-15T00:51:35;99674.00;;;1.20
37536;BMP180;23379;51.554;6.736;2024-01-15T00:54:00;99677.00;;;1.30
37536;BMP180;23379;51.554;6.736;2024-01-15T00:56:25;99696.00;;;1.40
37536;BMP180;23379;51.554;6.736;2024-01-15T00:58:51;99684.00;;;1.20
37536;BMP180;23379;51.554;6.736;2024-01-15T01:01:16;99675.00;;;1.30
37536;BMP180;23379;51.554;6.736;2024-01-15T01:03:41;99691.00;;;1.40
37536;BMP180;23379;51.554;6.736;2024-01-15T01:06:06;99664.00;;;1.20
37536;BMP180;23379;51.554;6.736;2024-01-15T01:08:32;99675.00;;;1.30
37536;BMP180;23379;51.554;6.736;2024-01-15T01:10:57;99669.00;;;1.20
37536;BMP180;23379;51.554;6.736;2024-01-15T01:13:22;99665.00;;;1.30
37536;BMP180;23379;51.554;6.736;2024-01-15T01:15:48;99646.00;;;1.10
37536;BMP180;23379;51.554;6.736;2024-01-15T01:18:13;99644.00;;;1.10
37536;BMP180;23379;51.554;6.736;2024-01-15T01:20:38;99662.00;;;1.10
37536;BMP180;23379;51.554;6.736;2024-01-15T01:23:03;99656.00;;;1.10
37536;BMP180;23379;51.554;6.736;2024-01-15T01:25:29;99661.00;;;1.00
37536;BMP180;23379;51.554;6.736;2024-01-15T01:27:54;99663.00;;;1.00
37536;BMP180;23379;51.554;6.736;2024-01-15T01:30:19;99662.00;;;1.20
37536;BMP180;23379;51.554;6.736;2024-01-15T01:32:45;99658.00;;;1.10
37536;BMP180;23379;51.554;6.736;2024-01-15T01:35:10;99660.00;;;1.00
37536;BMP180;23379;51.554;6.736;2024-01-15T01:37:35;99662.00;;;1.00
37536;BMP180;23379;51.554;6.736;2024-01-15T01:40:00;99657.00;;;1.10
37536;BMP180;23379;51.554;6.736;2024-01-15T01:42:26;99657.00;;;1.10
37536;BMP180;23379;51.554;6.736;2024-01-15T01:44:51;99659.00;;;1.20
37536;BMP180;23379;51.554;6.736;2024-01-15T01:47:16;99655.00;;;1.30
37536;BMP180;23379;51.554;6.736;2024-01-15T01:49:42;99652.00;;;1.30
37536;BMP180;23379;51.554;6.736;2024-01-15T01:52:08;99661.00;;;1.10
37536;BMP180;23379;51.554;6.736;2024-01-15T01:54:35;99682.00;;;1.20
37536;BMP180;23379;51.554;6.736;2024-01-15T01:57:02;99665.00;;;1.30
37536;BMP180;23379;51.554;6.736;2024-01-15T01:59:28;99673.00;;;1.10
37536;BMP180;23379;51.554;6.736;2024-01-15T02:01:54;99669.00;;;1.10
37536;BMP180;23379;51.554;6.736;2024-01-15T02:04:20;99677.00;;;1.10
37536;BMP180;23379;51.554;6.736;2024-01-15T02:06:47;99667.00;;;1.10
37536;BMP180;23379;51.554;6.736;2024-01-15T02:09:13;99668.00;;;1.20
37536;BMP180;23379;51.554;6.736;2024-01-15T02:11:41;99678.00;;;1.30
37536;BMP180;23379;51.554;6.736;2024-01-15T02:14:06;99650.00;;;1.20
37536;BMP180;23379;51.554;6.736;2024-01-15T02:16:32;99671.00;;;1.20
37536;BMP180;23379;51.554;6.736;2024-01-15T02:18:57;99679.00;;;1.10
37536;BMP180;23379;51.554;6.736;2024-01-15T02:21:22;99668.00;;;1.10
37536;BMP180;23379;51.554;6.736;2024-01-15T02:23:47;99669.00;;;1.20
37536;BMP180;23379;51.554;6.736;2024-01-15T02:26:13;99668.00;;;1.20
37536;BMP180;23379;51.554;6.736;2024-01-15T02:28:39;99672.00;;;1.30
37536;BMP180;23379;51.554;6.736;2024-01-15T02:31:04;99674.00;;;1.20
37536;BMP180;23379;51.554;6.736;2024-01-15T02:33:29;99659.00;;;1.30
37536;BMP180;23379;51.554;6.736;2024-01-15T02:35:55;99658.00;;;1.30
37536;BMP180;23379;51.554;6.736;2024-01-15T02:38:20;99678.00;;;1.20
37536;BMP180;23379;51.554;6.736;2024-01-15T02:40:46;99657.00;;;1.20
37536;BMP180;23379;51.554;6.736;2024-01-15T02:43:12;99661.00;;;1.30
37536;BMP180;23379;51.554;6.736;2024-01-15T02:45:38;99654.00;;;1.30
37536;BMP180;23379;51.554;6.736;2024-01-15T02:48:04;99650.00;;;1.20
37536;BMP180;23379;51.554;6.736;2024-01-15T02:50:29;99647.00;;;1.30
37536;BMP180;23379;51.554;6.736;2024-01-15T02:52:55;99657.00;;;1.30
37536;BMP180;23379;51.554;6.736;2024-01-15T02:55:20;99664.00;;;1.20
37536;BMP180;23379;51.554;6.736;2024-01-15T02:57:45;99659.00;;;1.20
37536;BMP180;23379;51.554;6.736;2024-01-15T03:00:11;99664.00;;;1.50
37536;BMP180;23379;51.554;6.736;2024-01-15T03:02:37;99664.00;;;1.30
37536;BMP180;23379;51.554;6.736;2024-01-15T03:05:06;99648.00;;;1.30
37536;BMP180;23379;51.554;6.736;2024-01-15T03:07:32;99640.00;;;1.30
37536;BMP180;23379;51.554;6.736;2024-01-15T03:09:58;99651.00;;;1.20
37536;BMP180;23379;51.554;6.736;2024-01-15T03:12:23;99647.00;;;1.20
37536;BMP180;23379;51.554;6.736;2024-01-15T03:14:48;99650.00;;;1.20
37536;BMP180;23379;51.554;6.736;2024-01-15T03:17:14;99648.00;;;1.00
37536;BMP180;23379;51.554;6.736;2024-01-15T03:19:39;99660.00;;;1.00
37536;BMP180;23379;51.554;6.736;2024-01-15T03:22:04;99645.00;;;1.00
37536;BMP180;23379;51.554;6.736;2024-01-15T03:24:31;99657.00;;;1.10
37536;BMP180;23379;51.554;6.736;2024-01-15T03:26:57;99655.00;;;1.00
37536;BMP180;23379;51.554;6.736;2024-01-15T03:29:22;99657.00;;;1.10
37536;BMP180;23379;51.554;6.736;2024-01-15T03:31:48;99639.00;;;1.10
37536;BMP180;23379;51.554;6.736;2024-01-15T03:34:13;99647.00;;;1.10
37536;BMP180;23379;51.554;6.736;2024-01-15T03:36:38;99653.00;;;1.20
37536;BMP180;23379;51.554;6.736;2024-01-15T03:39:04;99660.00;;;1.10
37536;BMP180;23379;51.554;6.736;2024-01-15T03:41:29;99665.00;;;1.10
37536;BMP180;23379;51.554;6.736;2024-01-15T03:43:54;99646.00;;;1.10
37536;BMP180;23379;51.554;6.736;2024-01-15T03:46:20;99654.00;;;1.10
37536;BMP180;23379;51.554;6.736;2024-01-15T03:48:45;99654.00;;;1.20
37536;BMP180;23379;51.554;6.736;2024-01-15T03:51:10;99655.00;;;1.20
37536;BMP180;23379;51.554;6.736;2024-01-15T03:53:36;99656.00;;;1.30
37536;BMP180;23379;51.554;6.736;2024-01-15T03:56:01;99658.00;;;1.30
37536;BMP180;23379;51.554;6.736;2024-01-15T03:58:26;99651.00;;;1.40
37536;BMP180;23379;51.554;6.736;2024-01-15T04:00:51;99643.00;;;1.20
37536;BMP180;23379;51.554;6.736;2024-01-15T04:03:17;99651.00;;;1.20
37536;BMP180;23379;51.554;6.736;2024-01-15T04:05:42;99629.00;;;1.30
37536;BMP180;23379;51.554;6.736;2024-01-15T04:08:07;99642.00;;;1.10
37536;BMP180;23379;51.554;6.736;2024-01-15T04:10:33;99648.00;;;1.10
37536;BMP180;23379;51.554;6.736;2024-01-15T04:12:58;99643.00;;;1.10
37536;BMP180;23379;51.554;6.736;2024-01-15T04:15:25;99635.00;;;1.10
37536;BMP180;23379;51.554;6.736;2024-01-15T04:17:50;99636.00;;;1.10
37536;BMP180;23379;51.554;6.736;2024-01-15T04:20:15;99637.00;;;1.10
37536;BMP180;23379;51.554;6.736;2024-01-15T04:22:41;99625.00;;;1.10
37536;BMP180;23379;51.554;6.736;2024-01-15T04:25:06;99616.00;;;1.20
37536;BMP180;23379;51.554;6.736;2024-01-15T04:27:32;99611.00;;;1.10
37536;BMP180;23379;51.554;6.736;2024-01-15T04:29:57;99618.00;;;1.20
37536;BMP180;23379;51.554;6.736;2024-01-15T04:32:22;99624.00;;;1.20
37536;BMP180;23379;51.554;6.736;2024-01-15T04:34:47;99598.00;;;1.40
37536;BMP180;23379;51.554;6.736;2024-01-15T04:37:13;99597.00;;;1.30
37536;BMP180;23379;51.554;6.736;2024-01-15T04:39:39;99611.00;;;1.50
37536;BMP180;23379;51.554;6.736;2024-01-15T04:42:04;99613.00;;;1.30
37536;BMP180;23379;51.554;6.736;2024-01-15T04:44:30;99606.00;;;1.40
37536;BMP180;23379;51.554;6.736;2024-01-15T04:46:55;99599.00;;;1.30
37536;BMP180;23379;51.554;6.736;2024-01-15T04:49:20;99591.00;;;1.40
37536;BMP180;23379;51.554;6.736;2024-01-15T04:51:46;99591.00;;;1.20
37536;BMP180;23379;51.554;6.736;2024-01-15T04:54:11;99590.00;;;1.20
37536;BMP180;23379;51.554;6.736;2024-01-15T04:56:36;99592.00;;;1.30
37536;BMP180;23379;51.554;6.736;2024-01-15T04:59:02;99601.00;;;1.30
37536;BMP180;23379;51.554;6.736;2024-01-15T05:01:31;99590.00;;;1.20
37536;BMP180;23379;51.554;6.736;2024-01-15T05:03:57;99590.00;;;1.20
37536;BMP180;23379;51.554;6.736;2024-01-15T05:06:22;99596.00;;;1.20
37536;BMP180;23379;51.554;6.736;2024-01-15T05:08:48;99588.00;;;1.20
37536;BMP180;23379;51.554;6.736;2024-01-15T05:11:13;99582.00;;;1.30
37536;BMP180;23379;51.554;6.736;2024-01-15T05:13:38;99576.00;;;1.30
37536;BMP180;23379;51.554;6.736;2024-01-15T05:16:04;99583.00;;;1.30
37536;BMP180;23379;51.554;6.736;2024-01-15T05:18:29;99578.00;;;1.30
37536;BMP180;23379;51.554;6.736;2024-01-15T05:20:54;99578.00;;;1.10
37536;BMP180;23379;51.554;6.736;2024-01-15T05:23:20;99583.00;;;1.10
37536;BMP180;23379;51.554;6.736;2024-01-15T05:25:45;99577.00;;;1.20
37536;BMP180;23379;51.554;6.736;2024-01-15T05:28:10;99575.00;;;1.10
37536;BMP180;23379;51.554;6.736;2024-01-15T05:30:36;99577.00;;;1.10
37536;BMP180;23379;51.554;6.736;2024-01-15T05:33:01;99581.00;;;1.30
37536;BMP180;23379;51.554;6.736;2024-01-15T05:35:28;99571.00;;;1.20
37536;BMP180;23379;51.554;6.736;2024-01-15T05:37:53;99564.00;;;1.20
37536;BMP180;23379;51.554;6.736;2024-01-15T05:40:18;99569.00;;;1.10
37536;BMP180;23379;51.554;6.736;2024-01-15T05:42:43;99567.00;;;1.10
37536;BMP180;23379;51.554;6.736;2024-01-15T05:45:09;99587.00;;;1.10
37536;BMP180;23379;51.554;6.736;2024-01-15T05:47:34;99569.00;;;1.20
37536;BMP180;23379;51.554;6.736;2024-01-15T05:50:01;99566.00;;;1.20
37536;BMP180;23379;51.554;6.736;2024-01-15T05:52:26;99578.00;;;1.20
37536;BMP180;23379;51.554;6.736;2024-01-15T05:54:52;99584.00;;;1.20
37536;BMP180;23379;51.554;6.736;2024-01-15T05:57:17;99572.00;;;1.40
37536;BMP180;23379;51.554;6.736;2024-01-15T05:59:44;99576.00;;;1.20
37536;BMP180;23379;51.554;6.736;2024-01-15T06:02:09;99567.00;;;1.20
37536;BMP180;23379;51.554;6.736;2024-01-15T06:04:34;99575.00;;;1.20
37536;BMP180;23379;51.554;6.736;2024-01-15T06:07:00;99569.00;;;1.30
37536;BMP180;23379;51.554;6.736;2024-01-15T06:09:25;99567.00;;;1.30
37536;BMP180;23379;51.554;6.736;2024-01-15T06:11:50;99561.00;;;1.40
37536;BMP180;23379;51.554;6.736;2024-01-15T06:14:15;99552.00;;;1.40
37536;BMP180;23379;51.554;6.736;2024-01-15T06:16:41;99557.00;;;1.40
37536;BMP180;23379;51.554;6.736;2024-01-15T06:19:06;99557.00;;;1.40
37536;BMP180;23379;51.554;6.736;2024-01-15T06:21:31;99562.00;;;1.30
37536;BMP180;23379;51.554;6.736;2024-01-15T06:23:57;99541.00;;;1.40
37536;BMP180;23379;51.554;6.736;2024-01-15T06:26:22;99551.00;;;1.40
37536;BMP180;23379;51.554;6.736;2024-01-15T06:28:48;99544.00;;;1.40
37536;BMP180;23379;51.554;6.736;2024-01-15T06:31:13;99539.00;;;1.40
37536;BMP180;23379;51.554;6.736;2024-01-15T06:33:39;99538.00;;;1.50
37536;BMP180;23379;51.554;6.736;2024-01-15T06:36:05;99544.00;;;1.70
37536;BMP180;23379;51.554;6.736;2024-01-15T06:38:31;99539.00;;;1.60
37536;BMP180;23379;51.554;6.736;2024-01-15T06:40:56;99535.00;;;1.60
37536;BMP180;23379;51.554;6.736;2024-01-15T06:43:21;99547.00;;;1.50
37536;BMP180;23379;51.554;6.736;2024-01-15T06:45:47;99536.00;;;1.60
37536;BMP180;23379;51.554;6.736;2024-01-15T06:48:12;99543.00;;;1.50
37536;BMP180;23379;51.554;6.736;2024-01-15T06:50:40;99532.00;;;1.40
37536;BMP180;23379;51.554;6.736;2024-01-15T06:53:05;99547.00;;;1.50
37536;BMP180;23379;51.554;6.736;2024-01-15T06:55:30;99555.00;;;1.50
37536;BMP180;23379;51.554;6.736;2024-01-15T06:57:56;99565.00;;;1.70
37536;BMP180;23379;51.554;6.736;2024-01-15T07:00:21;99555.00;;;1.40
37536;BMP180;23379;51.554;6.736;2024-01-15T07:02:46;99553.00;;;1.40
37536;BMP180;23379;51.554;6.736;2024-01-15T07:05:12;99546.00;;;1.50
37536;BMP180;23379;51.554;6.736;2024-01-15T07:07:37;99550.00;;;1.40
37536;BMP180;23379;51.554;6.736;2024-01-15T07:10:03;99562.00;;;1.40
37536;BMP180;23379;51.554;6.736;2024-01-15T07:12:29;99539.00;;;1.40
37536;BMP180;23379;51.554;6.736;2024-01-15T07:14:56;99546.00;;;1.50
37536;BMP180;23379;51.554;6.736;2024-01-15T07:17:21;99554.00;;;1.40
37536;BMP180;23379;51.554;6.736;2024-01-15T07:19:46;99549.00;;;1.60
37536;BMP180;23379;51.554;6.736;2024-01-15T07:22:12;99547.00;;;1.50
37536;BMP180;23379;51.554;6.736;2024-01-15T07:24:37;99540.00;;;1.60
37536;BMP180;23379;51.554;6.736;2024-01-15T07:27:03;99556.00;;;1.60
37536;BMP180;23379;51.554;6.736;2024-01-15T07:29:30;99549.00;;;1.50
37536;BMP180;23379;51.554;6.736;2024-01-15T07:31:58;99543.00;;;1.40
37536;BMP180;23379;51.554;6.736;2024-01-15T07:34:23;99547.00;;;1.60
37536;BMP180;23379;51.554;6.736;2024-01-15T07:36:49;99557.00;;;1.40
37536;BMP180;23379;51.554;6.736;2024-01-15T07:39:14;99542.00;;;1.50
37536;BMP180;23379;51.554;6.736;2024-01-15T07:41:40;99541.00;;;1.30
37536;BMP180;23379;51.554;6.736;2024-01-15T07:44:05;99539.00;;;1.40
37536;BMP180;23379;51.554;6.736;2024-01-15T07:46:30;99546.00;;;1.30
37536;BMP180;23379;51.554;6.736;2024-01-15T07:48:56;99565.00;;;1.30
37536;BMP180;23379;51.554;6.736;2024-01-15T07:51:23;99554.00;;;1.20
37536;BMP180;23379;51.554;6.736;2024-01-15T07:53:49;99538.00;;;1.30
37536;BMP180;23379;51.554;6.736;2024-01-15T07:56:14;99540.00;;;1.40
37536;BMP180;23379;51.554;6.736;2024-01-15T07:58:40;99560.00;;;1.30
37536;BMP180;23379;51.554;6.736;2024-01-15T08:01:05;99553.00;;;1.30
37536;BMP180;23379;51.554;6.736;2024-01-15T08:03:31;99557.00;;;1.40
37536;BMP180;23379;51.554;6.736;2024-01-15T08:05:57;99543.00;;;1.40
37536;BMP180;23379;51.554;6.736;2024-01-15T08:08:24;99570.00;;;1.30
37536;BMP180;23379;51.554;6.736;2024-01-15T08:10:51;99543.00;;;1.20
37536;BMP180;23379;51.554;6.736;2024-01-15T08:13:17;99539.00;;;1.10
37536;BMP180;23379;51.554;6.736;2024-01-15T08:15:42;99552.00;;;1.30
37536;BMP180;23379;51.554;6.736;2024-01-15T08:18:07;99572.00;;;1.30
37536;BMP180;23379;51.554;6.736;2024-01-15T08:20:33;99557.00;;;1.30
37536;BMP180;23379;51.554;6.736;2024-01-15T08:22:58;99568.00;;;1.30
37536;BMP180;23379;51.554;6.736;2024-01-15T08:25:24;99555.00;;;1.40
37536;BMP180;23379;51.554;6.736;2024-01-15T08:27:49;99564.00;;;1.40
37536;BMP180;23379;51.554;6.736;2024-01-15T08:30:15;99552.00;;;1.40
37536;BMP180;23379;51.554;6.736;2024-01-15T08:32:40;99552.00;;;1.30
37536;BMP180;23379;51.554;6.736;2024-01-15T08:35:09;99564.00;;;1.30
37536;BMP180;23379;51.554;6.736;2024-01-15T08:37:34;99569.00;;;1.10
37536;BMP180;23379;51.554;6.736;2024-01-15T08:40:00;99562.00;;;1.00
37536;BMP180;23379;51.554;6.736;2024-01-15T08:42:25;99560.00;;;1.00
37536;BMP180;23379;51.554;6.736;2024-01-15T08:44:50;99562.00;;;1.00
37536;BMP180;23379;51.554;6.736;2024-01-15T08:47:16;99575.00;;;0.90
37536;BMP180;23379;51.554;6.736;2024-01-15T08:49:42;99572.00;;;0.90
37536;BMP180;23379;51.554;6.736;2024-01-15T08:52:09;99573.00;;;0.70
37536;BMP180;23379;51.554;6.736;2024-01-15T08:54:35;99562.00;;;0.90
37536;BMP180;23379;51.554;6.736;2024-01-15T08:57:00;99570.00;;;0.80
37536;BMP180;23379;51.554;6.736;2024-01-15T08:59:26;99568.00;;;0.90
37536;BMP180;23379;51.554;6.736;2024-01-15T09:01:54;99574.00;;;0.70
37536;BMP180;23379;51.554;6.736;2024-01-15T09:04:22;99583.00;;;0.70
37536;BMP180;23379;51.554;6.736;2024-01-15T09:06:48;99582.00;;;0.70
37536;BMP180;23379;51.554;6.736;2024-01-15T09:09:13;99581.00;;;0.80
37536;BMP180;23379;51.554;6.736;2024-01-15T09:11:40;99599.00;;;0.70
37536;BMP180;23379;51.554;6.736;2024-01-15T09:14:06;99587.00;;;0.80
37536;BMP180;23379;51.554;6.736;2024-01-15T09:16:31;99589.00;;;0.70
37536;BMP180;23379;51.554;6.736;2024-01-15T09:18:57;99583.00;;;0.80
37536;BMP180;23379;51.554;6.736;2024-01-15T09:21:23;99578.00;;;0.80
37536;BMP180;23379;51.554;6.736;2024-01-15T09:23:49;99573.00;;;0.80
37536;BMP180;23379;51.554;6.736;2024-01-15T09:26:15;99593.00;;;0.80
37536;BMP180;23379;51.554;6.736;2024-01-15T09:28:40;99581.00;;;0.90
37536;BMP180;23379;51.554;6.736;2024-01-15T09:31:05;99585.00;;;0.90
37536;BMP180;23379;51.554;6.736;2024-01-15T09:33:31;99583.00;;;1.10
37536;BMP180;23379;51.554;6.736;2024-01-15T09:35:56;99594.00;;;1.20
37536;BMP180;23379;51.554;6.736;2024-01-15T09:38:22;99581.00;;;0.90
37536;BMP180;23379;51.554;6.736;2024-01-15T09:40:49;99591.00;;;1.00
37536;BMP180;23379;51.554;6.736;2024-01-15T09:43:14;99588.00;;;1.00
37536;BMP180;23379;51.554;6.736;2024-01-15T09:45:41;99590.00;;;0.90
37536;BMP180;23379;51.554;6.736;2024-01-15T09:48:07;99585.00;;;1.10
37536;BMP180;23379;51.554;6.736;2024-01-15T09:50:33;99589.00;;;1.10
37536;BMP180;23379;51.554;6.736;2024-01-15T09:52:59;99592.00;;;1.20
37536;BMP180;23379;51.554;6.736;2024-01-15T09:55:25;99582.00;;;1.20
37536;BMP180;23379;51.554;6.736;2024-01-15T09:57:52;99589.00;;;1.20
37536;BMP180;23379;51.554;6.736;2024-01-15T10:00:18;99579.00;;;1.30
37536;BMP180;23379;51.554;6.736;2024-01-15T10:02:45;99590.00;;;1.20
37536;BMP180;23379;51.554;6.736;2024-01-15T10:05:11;99585.00;;;1.00
37536;BMP180;23379;51.554;6.736;2024-01-15T10:07:37;99589.00;;;1.40
37536;BMP180;23379;51.554;6.736;2024-01-15T10:10:02;99581.00;;;1.30
37536;BMP180;23379;51.554;6.736;2024-01-15T10:12:31;99592.00;;;1.40
37536;BMP180;23379;51.554;6.736;2024-01-15T10:14:56;99578.00;;;1.60
37536;BMP180;23379;51.554;6.736;2024-01-15T10:17:22;99576.00;;;1.50
37536;BMP180;23379;51.554;6.736;2024-01-15T10:19:47;99569.00;;;1.80
37536;BMP180;23379;51.554;6.736;2024-01-15T10:22:14;99589.00;;;1.70
37536;BMP180;23379;51.554;6.736;2024-01-15T10:24:40;99585.00;;;1.90
37536;BMP180;23379;51.554;6.736;2024-01-15T10:27:09;99571.00;;;1.80
37536;BMP180;23379;51.554;6.736;2024-01-15T10:29:35;99576.00;;;1.90
37536;BMP180;23379;51.554;6.736;2024-01-15T10:32:02;99577.00;;;1.80
37536;BMP180;23379;51.554;6.736;2024-01-15T10:34:27;99574.00;;;1.60
37536;BMP180;23379;51.554;6.736;2024-01-15T10:36:53;99571.00;;;1.80
37536;BMP180;23379;51.554;6.736;2024-01-15T10:39:24;99577.00;;;1.80
37536;BMP180;23379;51.554;6.736;2024-01-15T10:41:50;99575.00;;;1.70
37536;BMP180;23379;51.554;6.736;2024-01-15T10:44:17;99571.00;;;1.70
37536;BMP180;23379;51.554;6.736;2024-01-15T10:46:43;99567.00;;;1.80
37536;BMP180;23379;51.554;6.736;2024-01-15T10:49:09;99578.00;;;2.10
37536;BMP180;23379;51.554;6.736;2024-01-15T10:51:36;99584.00;;;2.00
37536;BMP180;23379;51.554;6.736;2024-01-15T10:54:01;99582.00;;;2.90
37536;BMP180;23379;51.554;6.736;2024-01-15T10:56:27;99587.00;;;2.80
37536;BMP180;23379;51.554;6.736;2024-01-15T10:58:54;99593.00;;;2.60
37536;BMP180;23379;51.554;6.736;2024-01-15T11:01:20;99582.00;;;2.40
37536;BMP180;23379;51.554;6.736;2024-01-15T11:03:46;99561.00;;;2.30
37536;BMP180;23379;51.554;6.736;2024-01-15T11:06:19;99590.00;;;2.40
37536;BMP180;23379;51.554;6.736;2024-01-15T11:08:52;99587.00;;;2.90
37536;BMP180;23379;51.554;6.736;2024-01-15T11:11:18;99599.00;;;3.80
37536;BMP180;23379;51.554;6.736;2024-01-15T11:13:46;99587.00;;;3.30
37536;BMP180;23379;51.554;6.736;2024-01-15T11:16:13;99594.00;;;3.20
37536;BMP180;23379;51.554;6.736;2024-01-15T11:21:23;99574.00;;;2.30
37536;BMP180;23379;51.554;6.736;2024-01-15T11:28:59;99566.00;;;2.00
37536;BMP180;23379;51.554;6.736;2024-01-15T11:34:03;99576.00;;;1.80
37536;BMP180;23379;51.554;6.736;2024-01-15T11:41:56;99582.00;;;2.00
37536;BMP180;23379;51.554;6.736;2024-01-15T11:44:22;99586.00;;;2.00
37536;BMP180;23379;51.554;6.736;2024-01-15T11:47:11;99603.00;;;1.80
37536;BMP180;23379;51.554;6.736;2024-01-15T11:50:04;99579.00;;;1.90
37536;BMP180;23379;51.554;6.736;2024-01-15T11:52:37;99591.00;;;1.80
37536;BMP180;23379;51.554;6.736;2024-01-15T12:00:10;99594.00;;;2.10
37536;BMP180;23379;51.554;6.736;2024-01-15T12:02:41;99589.00;;;2.40
37536;BMP180;23379;51.554;6.736;2024-01-15T12:05:10;99582.00;;;3.10
37536;BMP180;23379;51.554;6.736;2024-01-15T12:07:46;99576.00;;;3.60
37536;BMP180;23379;51.554;6.736;2024-01-15T12:10:20;99565.00;;;3.60
37536;BMP180;23379;51.554;6.736;2024-01-15T12:12:58;99588.00;;;3.50
37536;BMP180;23379;51.554;6.736;2024-01-15T12:15:25;99590.00;;;3.70
37536;BMP180;23379;51.554;6.736;2024-01-15T12:17:51;99584.00;;;3.50
37536;BMP180;23379;51.554;6.736;2024-01-15T12:20:17;99589.00;;;3.40
37536;BMP180;23379;51.554;6.736;2024-01-15T12:22:43;99585.00;;;3.10
37536;BMP180;23379;51.554;6.736;2024-01-15T12:25:09;99578.00;;;2.90
37536;BMP180;23379;51.554;6.736;2024-01-15T12:27:34;99587.00;;;2.60
37536;BMP180;23379;51.554;6.736;2024-01-15T12:30:00;99586.00;;;2.60
37536;BMP180;23379;51.554;6.736;2024-01-15T12:32:25;99590.00;;;2.60
37536;BMP180;23379;51.554;6.736;2024-01-15T12:34:51;99592.00;;;2.20
37536;BMP180;23379;51.554;6.736;2024-01-15T12:37:20;99589.00;;;2.20
37536;BMP180;23379;51.554;6.736;2024-01-15T12:39:45;99590.00;;;2.20
37536;BMP180;23379;51.554;6.736;2024-01-15T12:42:11;99592.00;;;2.10
37536;BMP180;23379;51.554;6.736;2024-01-15T12:44:37;99594.00;;;2.10
37536;BMP180;23379;51.554;6.736;2024-01-15T12:47:06;99599.00;;;2.00
37536;BMP180;23379;51.554;6.736;2024-01-15T12:49:32;99607.00;;;2.20
37536;BMP180;23379;51.554;6.736;2024-01-15T12:51:58;99603.00;;;2.20
37536;BMP180;23379;51.554;6.736;2024-01-15T12:54:24;99593.00;;;2.20
37536;BMP180;23379;51.554;6.736;2024-01-15T12:56:50;99607.00;;;2.70
37536;BMP180;23379;51.554;6.736;2024-01-15T12:59:16;99607.00;;;3.50
37536;BMP180;23379;51.554;6.736;2024-01-15T13:01:41;99616.00;;;3.70
37536;BMP180;23379;51.554;6.736;2024-01-15T13:04:07;99607.00;;;3.70
37536;BMP180;23379;51.554;6.736;2024-01-15T13:06:34;99614.00;;;3.60
37536;BMP180;23379;51.554;6.736;2024-01-15T13:09:00;99608.00;;;3.20
37536;BMP180;23379;51.554;6.736;2024-01-15T13:11:25;99613.00;;;3.00
37536;BMP180;23379;51.554;6.736;2024-01-15T13:13:51;99606.00;;;2.80
37536;BMP180;23379;51.554;6.736;2024-01-15T13:16:16;99626.00;;;2.60
37536;BMP180;23379;51.554;6.736;2024-01-15T13:18:41;99617.00;;;2.60
37536;BMP180;23379;51.554;6.736;2024-01-15T13:21:07;99616.00;;;2.80
37536;BMP180;23379;51.554;6.736;2024-01-15T13:23:32;99616.00;;;3.20
37536;BMP180;23379;51.554;6.736;2024-01-15T13:25:57;99615.00;;;3.00
37536;BMP180;23379;51.554;6.736;2024-01-15T13:28:23;99613.00;;;3.00
37536;BMP180;23379;51.554;6.736;2024-01-15T13:30:49;99611.00;;;3.00
37536;BMP180;23379;51.554;6.736;2024-01-15T13:33:14;99602.00;;;2.80
37536;BMP180;23379;51.554;6.736;2024-01-15T13:35:39;99608.00;;;2.60
37536;BMP180;23379;51.554;6.736;2024-01-15T13:38:05;99617.00;;;2.70
37536;BMP180;23379;51.554;6.736;2024-01-15T13:40:30;99626.00;;;2.60
37536;BMP180;23379;51.554;6.736;2024-01-15T13:42:55;99622.00;;;2.60
37536;BMP180;23379;51.554;6.736;2024-01-15T13:45:21;99616.00;;;2.80
37536;BMP180;23379;51.554;6.736;2024-01-15T13:47:46;99622.00;;;2.80
37536;BMP180;23379;51.554;6.736;2024-01-15T13:50:11;99629.00;;;2.50
37536;BMP180;23379;51.554;6.736;2024-01-15T13:52:37;99631.00;;;2.30
37536;BMP180;23379;51.554;6.736;2024-01-15T13:55:03;99632.00;;;2.40
37536;BMP180;23379;51.554;6.736;2024-01-15T13:57:28;99638.00;;;2.50
37536;BMP180;23379;51.554;6.736;2024-01-15T13:59:54;99641.00;;;2.30
37536;BMP180;23379;51.554;6.736;2024-01-15T14:02:20;99644.00;;;2.20
37536;BMP180;23379;51.554;6.736;2024-01-15T14:04:46;99659.00;;;2.40
37536;BMP180;23379;51.554;6.736;2024-01-15T14:07:11;99653.00;;;2.30
37536;BMP180;23379;51.554;6.736;2024-01-15T14:09:36;99663.00;;;2.10
37536;BMP180;23379;51.554;6.736;2024-01-15T14:12:03;99658.00;;;2.30
37536;BMP180;23379;51.554;6.736;2024-01-15T14:14:28;99676.00;;;2.30
37536;BMP180;23379;51.554;6.736;2024-01-15T14:16:53;99656.00;;;2.50
37536;BMP180;23379;51.554;6.736;2024-01-15T14:19:19;99663.00;;;2.10
37536;BMP180;23379;51.554;6.736;2024-01-15T14:21:45;99660.00;;;2.30
37536;BMP180;23379;51.554;6.736;2024-01-15T14:24:11;99662.00;;;3.00
37536;BMP180;23379;51.554;6.736;2024-01-15T14:26:36;99666.00;;;3.30
37536;BMP180;23379;51.554;6.736;2024-01-15T14:29:01;99682.00;;;2.90
37536;BMP180;23379;51.554;6.736;2024-01-15T14:31:27;99685.00;;;2.90
37536;BMP180;23379;51.554;6.736;2024-01-15T14:33:54;99672.00;;;2.80